Weather observations for the past three days for
Hill Air Force Base
Imperial (Metric)
Date Time (mdt) Wind (mph) Vis. (mi.) Weather Sky Cond. Temperature (ºF) Relative Humidity Wind Chill (°F) Heat Index (°F) Pressure Precipitation (in)
Air Dwpt 6 hour altimeter (in) sea level (mb) 1 hr 3 hr 6 hr
Max. Min.
10 09:55 E 10 10.00 Fair CLR 62.2 29.7 29% 30.22 1019.2
10 08:55 E 16 10.00 Fair CLR 55.8 27.1 33% 30.21 1019.1
10 07:55 E 18 10.00 Fair CLR 52 25.9 36% 30.2 1018.8
10 06:55 SE 18 10.00 Fair CLR 49.1 24.6 38% 43 30.19 1018.4
10 05:55 SE 17 10.00 Fair CLR 49.8 23.9 59.4 49.5 36% 44 30.18 1018.1
10 04:55 SE 17 10.00 Fair CLR 49.6 23.7 36% 44 30.17 1017.7
10 03:55 E 21 10.00 Fair and Breezy CLR 53.6 22.1 29% 30.16 1017.1
10 02:55 Calm 10.00 Fair CLR 55.2 21.7 27% 30.16 1017.1
10 01:55 NE 7 G 17 10.00 Fair CLR 55 22.5 28% 30.15 1017.0
10 00:55 E 8 10.00 Fair CLR 57.4 22.8 26% 30.14 1016.4
09 23:55 E 9 10.00 Fair CLR 59.5 22.6 71.6 58.6 24% 30.14 1016.4
09 22:55 NE 7 10.00 Fair CLR 59.4 22.5 24% 30.13 1016.0
09 21:55 NE 5 10.00 Fair CLR 61.2 20.8 21% 30.11 1015.4
09 20:55 Calm 10.00 Fair CLR 67.5 14.9 13% 30.08 1014.0
09 19:55 W 5 10.00 Fair CLR 69.1 16.2 13% 30.06 1013.3
09 18:55 W 7 10.00 Fair CLR 71.2 14 11% 30.07 1014.0
09 17:55 NW 5 10.00 Fair CLR 71.4 12 71.4 65.5 10% 30.07 1013.7
09 16:55 N 5 10.00 Fair CLR 70.5 20.7 15% 30.09 1014.4
09 15:55 W 6 10.00 Fair CLR 69.4 21.2 16% 30.1 1014.7
09 14:55 W 12 G 16 10.00 Fair CLR 68.4 23.2 18% 30.11 1015.1
09 13:55 W 5 10.00 Fair CLR 67.5 23.7 19% 30.12 1015.4
09 12:55 NW 6 10.00 Fair CLR 67.6 19.8 16% 30.13 1015.8
09 11:55 NW 9 10.00 Fair CLR 65.7 19.6 66.2 54.5 17% 30.14 1016.1
09 10:55 NW 14 10.00 Fair CLR 65.5 18.1 16% 30.13 1015.5
09 09:55 N 8 10.00 Fair CLR 63.9 23.2 21% 30.13 1015.8
09 08:55 N 7 10.00 Fair CLR 60.8 25.7 26% 30.12 1015.7
09 07:55 N 5 10.00 Fair CLR 59.2 27 29% 30.1 1014.7
09 06:55 NW 9 10.00 Fair CLR 54.7 25.3 32% 30.09 1014.4
09 05:55 N 10 10.00 Fair CLR 58.8 21 64.4 56.8 23% 30.07 1013.4
09 04:55 NW 8 10.00 Fair CLR 59.7 21.9 23% 30.06 1013.0
09 03:55 NW 9 10.00 Fair CLR 60.6 21.6 22% 30.06 1013.0
09 02:55 N 8 10.00 Fair CLR 59.4 22.5 24% 30.05 1012.7
09 01:55 N 6 10.00 Fair CLR 59.9 28.4 30% 30.03 1012.0
09 00:55 Calm 10.00 Fair CLR 61.7 29.1 29% 30.02 1011.6
08 23:55 NE 3 10.00 Fair CLR 63.9 28.2 74.7 60.4 26% 30 1010.9
08 22:55 N 3 10.00 Fair CLR 64.6 31.6 29% 30 1010.9
08 21:55 N 5 10.00 Fair CLR 65.3 31.3 28% 29.98 1010.5
08 20:55 SE 7 10.00 Fair CLR 65.7 31.6 28% 29.96 1010.1
08 19:55 S 6 10.00 Fair CLR 70.5 28.8 21% 29.95 1009.8
08 18:55 SW 7 10.00 Fair CLR 73.9 26.4 17% 29.96 1010.1
08 17:55 W 10 10.00 Fair CLR 74.7 27 74.7 67.8 17% 29.98 1010.8
08 16:55 SW 7 10.00 Fair CLR 73.6 26.1 17% 29.99 1011.2
08 15:55 W 10 G 18 10.00 Fair CLR 73 27 18% 30.01 1011.6
08 14:55 W 13 G 22 10.00 Fair CLR 72.3 30.2 21% 30.03 1012.3
08 13:55 W 5 10.00 Fair CLR 70.5 32 24% 30.04 1012.9
08 12:55 S 6 10.00 Fair CLR 69.3 32.9 26% 30.04 1012.6
08 11:55 W 3 10.00 Fair CLR 68.4 35.8 68.4 51.3 30% 30.06 1013.3
08 10:55 Calm 10.00 Fair CLR 66.9 33.6 29% 30.06 1013.6
08 09:55 E 5 10.00 Fair CLR 63 38.8 41% 30.06 1013.6
08 08:55 E 5 10.00 Fair CLR 58.3 36 43% 30.05 1013.3
08 07:55 E 13 10.00 Fair CLR 54.3 33.4 45% 30.03 1012.8
08 06:55 SE 13 10.00 Fair CLR 51.8 31.6 46% 30.02 1012.2
08 05:55 SE 14 10.00 Fair CLR 51.4 32.4 59.9 51.4 48% 30 1011.5
08 04:55 E 13 10.00 Fair CLR 53.2 31.8 44% 29.99 1011.2
08 03:55 SE 10 10.00 Fair CLR 55 32.4 42% 29.99 1011.2
08 02:55 E 8 10.00 Fair CLR 55.9 32 40% 29.99 1011.2
08 01:55 SE 9 10.00 Fair CLR 56.5 33.6 42% 29.99 1010.9
08 00:55 SE 10 10.00 Fair CLR 57.7 33.6 40% 29.99 1011.2
07 23:55 SE 8 10.00 Fair CLR 59.5 33.3 72.7 59.2 37% 29.98 1010.8
07 22:55 E 9 10.00 Fair CLR 60.4 34 37% 29.97 1010.5
07 21:55 SE 5 10.00 Fair CLR 64.4 32.4 30% 29.96 1010.1
07 20:55 SW 3 10.00 Fair CLR 66.7 32.5 28% 29.95 1010.1
07 19:55 NW 3 10.00 Fair CLR 69.4 34 27% 29.94 1009.7
07 18:55 W 8 10.00 Fair CLR 72.5 31.5 22% 29.95 1010.1
07 17:55 SW 7 10.00 Fair CLR 72.1 32.4 72.5 65.5 23% 29.96 1010.4
07 16:55 Calm 10.00 Mostly Cloudy BKN170 BKN190 71.2 33.6 25% 29.98 1011.1
07 15:55 SW 10 10.00 A Few Clouds FEW150 FEW170 69.6 31.3 24% 30 1012.1
07 14:55 W 10 10.00 Partly Cloudy SCT150 70.5 29.8 22% 30.02 1012.8
07 13:55 W 13 10.00 A Few Clouds FEW100 70 25.9 19% 30.04 1013.5
07 12:55 S 10 10.00 A Few Clouds FEW110 FEW150 68.7 27.1 21% 30.05 1013.8
07 11:55 S 10 10.00 Mostly Cloudy BKN100 65.1 27.5 65.8 47.8 24% 30.06 1014.5
07 10:55 S 20 G 25 10.00 Partly Cloudy SCT100 64.6 25.9 23% 30.07 1014.8
Date Time (mdt) Wind (mph) Vis. (mi.) Weather Sky Cond. Air Dwpt Max. Min. Relative Humidity Wind Chill (°F) Heat Index (°F) altimeter (in) sea level (mb) 1 hr 3 hr 6 hr
6 hour
Temperature (ºF) Pressure Precipitation (in)